sensor_id;sensor_type;location;lat;lon;timestamp;pressure;altitude;pressure_sealevel;temperature;humidity
62942;BME280;49042;47.318;19.874;2024-02-15T00:02:38;101222.66;;;5.16;100.00
62942;BME280;49042;47.318;19.874;2024-02-15T00:05:58;101220.84;;;5.42;100.00
62942;BME280;49042;47.318;19.874;2024-02-15T00:08:59;101224.13;;;5.25;100.00
62942;BME280;49042;47.318;19.874;2024-02-15T00:12:01;101226.53;;;5.36;100.00
62942;BME280;49042;47.318;19.874;2024-02-15T00:15:04;101226.91;;;5.42;100.00
62942;BME280;49042;47.318;19.874;2024-02-15T00:18:06;101224.53;;;5.45;100.00
62942;BME280;49042;47.318;19.874;2024-02-15T00:21:09;101225.94;;;5.40;100.00
62942;BME280;49042;47.318;19.874;2024-02-15T00:24:11;101215.47;;;5.52;100.00
62942;BME280;49042;47.318;19.874;2024-02-15T00:27:13;101219.25;;;5.57;100.00
62942;BME280;49042;47.318;19.874;2024-02-15T00:30:14;101221.34;;;5.50;100.00
62942;BME280;49042;47.318;19.874;2024-02-15T00:33:18;101227.00;;;5.71;100.00
62942;BME280;49042;47.318;19.874;2024-02-15T00:36:20;101226.13;;;5.71;100.00
62942;BME280;49042;47.318;19.874;2024-02-15T00:39:22;101227.09;;;5.86;100.00
62942;BME280;49042;47.318;19.874;2024-02-15T00:42:24;101221.72;;;5.70;100.00
62942;BME280;49042;47.318;19.874;2024-02-15T00:45:26;101226.72;;;5.66;100.00
62942;BME280;49042;47.318;19.874;2024-02-15T00:48:27;101223.50;;;5.16;100.00
62942;BME280;49042;47.318;19.874;2024-02-15T00:51:32;101223.72;;;5.60;100.00
62942;BME280;49042;47.318;19.874;2024-02-15T00:54:35;101224.72;;;5.62;100.00
62942;BME280;49042;47.318;19.874;2024-02-15T00:57:37;101229.03;;;5.62;100.00
62942;BME280;49042;47.318;19.874;2024-02-15T01:00:39;101227.91;;;5.72;100.00
62942;BME280;49042;47.318;19.874;2024-02-15T01:03:41;101217.66;;;5.32;100.00
62942;BME280;49042;47.318;19.874;2024-02-15T01:06:43;101215.28;;;5.49;100.00
62942;BME280;49042;47.318;19.874;2024-02-15T01:09:44;101208.41;;;5.63;100.00
62942;BME280;49042;47.318;19.874;2024-02-15T01:12:46;101211.28;;;5.13;100.00
62942;BME280;49042;47.318;19.874;2024-02-15T01:15:48;101210.00;;;5.61;100.00
62942;BME280;49042;47.318;19.874;2024-02-15T01:18:50;101215.00;;;5.58;100.00
62942;BME280;49042;47.318;19.874;2024-02-15T01:21:52;101219.28;;;5.44;100.00
62942;BME280;49042;47.318;19.874;2024-02-15T01:24:55;101222.06;;;5.47;100.00
62942;BME280;49042;47.318;19.874;2024-02-15T01:27:58;101225.91;;;5.27;100.00
62942;BME280;49042;47.318;19.874;2024-02-15T01:31:00;101228.03;;;5.32;100.00
62942;BME280;49042;47.318;19.874;2024-02-15T01:34:02;101225.81;;;5.66;100.00
62942;BME280;49042;47.318;19.874;2024-02-15T01:37:04;101222.03;;;5.74;100.00
62942;BME280;49042;47.318;19.874;2024-02-15T01:40:07;101220.03;;;5.70;100.00
62942;BME280;49042;47.318;19.874;2024-02-15T01:43:09;101218.38;;;5.57;100.00
62942;BME280;49042;47.318;19.874;2024-02-15T01:46:11;101219.31;;;5.73;100.00
62942;BME280;49042;47.318;19.874;2024-02-15T01:49:13;101217.38;;;5.68;100.00
62942;BME280;49042;47.318;19.874;2024-02-15T01:52:16;101202.94;;;5.45;100.00
62942;BME280;49042;47.318;19.874;2024-02-15T01:55:18;101202.66;;;5.40;100.00
62942;BME280;49042;47.318;19.874;2024-02-15T01:58:20;101209.91;;;5.46;100.00
62942;BME280;49042;47.318;19.874;2024-02-15T02:01:23;101200.22;;;5.71;100.00
62942;BME280;49042;47.318;19.874;2024-02-15T02:04:25;101196.66;;;5.97;100.00
62942;BME280;49042;47.318;19.874;2024-02-15T02:07:26;101201.31;;;5.74;100.00
62942;BME280;49042;47.318;19.874;2024-02-15T02:10:29;101202.25;;;5.48;100.00
62942;BME280;49042;47.318;19.874;2024-02-15T02:13:34;101202.91;;;5.86;100.00
62942;BME280;49042;47.318;19.874;2024-02-15T02:16:36;101210.91;;;5.62;100.00
62942;BME280;49042;47.318;19.874;2024-02-15T02:19:40;101227.63;;;5.40;100.00
62942;BME280;49042;47.318;19.874;2024-02-15T02:22:46;101227.69;;;5.55;100.00
62942;BME280;49042;47.318;19.874;2024-02-15T02:25:48;101237.66;;;5.49;100.00
62942;BME280;49042;47.318;19.874;2024-02-15T02:28:51;101232.06;;;5.83;100.00
62942;BME280;49042;47.318;19.874;2024-02-15T02:31:56;101227.97;;;5.87;100.00
62942;BME280;49042;47.318;19.874;2024-02-15T02:34:58;101221.53;;;5.53;100.00
62942;BME280;49042;47.318;19.874;2024-02-15T02:38:02;101218.03;;;5.93;100.00
62942;BME280;49042;47.318;19.874;2024-02-15T02:41:04;101221.22;;;5.89;100.00
62942;BME280;49042;47.318;19.874;2024-02-15T02:44:06;101221.03;;;5.72;100.00
62942;BME280;49042;47.318;19.874;2024-02-15T02:47:07;101219.91;;;5.96;100.00
62942;BME280;49042;47.318;19.874;2024-02-15T02:50:09;101228.81;;;5.72;100.00
62942;BME280;49042;47.318;19.874;2024-02-15T02:53:11;101222.47;;;6.09;100.00
62942;BME280;49042;47.318;19.874;2024-02-15T02:56:13;101217.09;;;6.06;100.00
62942;BME280;49042;47.318;19.874;2024-02-15T02:59:15;101226.66;;;5.94;100.00
62942;BME280;49042;47.318;19.874;2024-02-15T03:02:17;101227.63;;;6.23;100.00
62942;BME280;49042;47.318;19.874;2024-02-15T03:05:19;101224.84;;;6.06;100.00
62942;BME280;49042;47.318;19.874;2024-02-15T03:08:23;101232.31;;;6.02;100.00
62942;BME280;49042;47.318;19.874;2024-02-15T03:11:28;101227.66;;;6.09;100.00
62942;BME280;49042;47.318;19.874;2024-02-15T03:14:30;101221.16;;;6.16;100.00
62942;BME280;49042;47.318;19.874;2024-02-15T03:17:33;101225.38;;;6.43;100.00
62942;BME280;49042;47.318;19.874;2024-02-15T03:20:37;101226.72;;;6.23;100.00
62942;BME280;49042;47.318;19.874;2024-02-15T03:23:39;101224.38;;;5.98;100.00
62942;BME280;49042;47.318;19.874;2024-02-15T03:26:40;101218.62;;;6.31;100.00
62942;BME280;49042;47.318;19.874;2024-02-15T03:29:44;101225.25;;;6.13;100.00
62942;BME280;49042;47.318;19.874;2024-02-15T03:32:46;101223.16;;;6.20;100.00
62942;BME280;49042;47.318;19.874;2024-02-15T03:35:58;101221.00;;;6.42;100.00
62942;BME280;49042;47.318;19.874;2024-02-15T03:39:02;101216.69;;;6.14;100.00
62942;BME280;49042;47.318;19.874;2024-02-15T03:42:04;101211.59;;;6.29;100.00
62942;BME280;49042;47.318;19.874;2024-02-15T03:45:07;101210.88;;;6.31;100.00
62942;BME280;49042;47.318;19.874;2024-02-15T03:48:10;101218.28;;;6.25;100.00
62942;BME280;49042;47.318;19.874;2024-02-15T03:51:18;101213.75;;;5.80;100.00
62942;BME280;49042;47.318;19.874;2024-02-15T03:54:25;101217.19;;;5.94;100.00
62942;BME280;49042;47.318;19.874;2024-02-15T03:57:26;101219.53;;;5.62;100.00
62942;BME280;49042;47.318;19.874;2024-02-15T04:00:29;101216.63;;;5.85;100.00
62942;BME280;49042;47.318;19.874;2024-02-15T04:03:31;101214.25;;;5.74;100.00
62942;BME280;49042;47.318;19.874;2024-02-15T04:06:33;101216.56;;;5.29;100.00
62942;BME280;49042;47.318;19.874;2024-02-15T04:09:36;101223.44;;;5.14;100.00
62942;BME280;49042;47.318;19.874;2024-02-15T04:12:37;101233.59;;;5.39;100.00
62942;BME280;49042;47.318;19.874;2024-02-15T04:15:39;101219.47;;;5.61;100.00
62942;BME280;49042;47.318;19.874;2024-02-15T04:18:41;101224.53;;;5.45;100.00
62942;BME280;49042;47.318;19.874;2024-02-15T04:21:43;101228.72;;;5.43;100.00
62942;BME280;49042;47.318;19.874;2024-02-15T04:24:45;101213.66;;;5.51;100.00
62942;BME280;49042;47.318;19.874;2024-02-15T04:27:48;101223.44;;;5.55;100.00
62942;BME280;49042;47.318;19.874;2024-02-15T04:30:51;101222.25;;;5.37;100.00
62942;BME280;49042;47.318;19.874;2024-02-15T04:33:54;101223.94;;;5.22;100.00
62942;BME280;49042;47.318;19.874;2024-02-15T04:36:56;101221.09;;;5.06;100.00
62942;BME280;49042;47.318;19.874;2024-02-15T04:40:00;101222.91;;;5.07;100.00
62942;BME280;49042;47.318;19.874;2024-02-15T04:43:11;101224.72;;;5.08;100.00
62942;BME280;49042;47.318;19.874;2024-02-15T04:46:13;101215.75;;;5.16;100.00
62942;BME280;49042;47.318;19.874;2024-02-15T04:49:15;101217.47;;;5.43;100.00
62942;BME280;49042;47.318;19.874;2024-02-15T04:52:17;101220.53;;;5.23;100.00
62942;BME280;49042;47.318;19.874;2024-02-15T04:55:19;101216.00;;;5.33;100.00
62942;BME280;49042;47.318;19.874;2024-02-15T04:58:21;101222.22;;;5.09;100.00
62942;BME280;49042;47.318;19.874;2024-02-15T05:01:23;101234.16;;;5.07;100.00
62942;BME280;49042;47.318;19.874;2024-02-15T05:04:25;101222.81;;;5.05;100.00
62942;BME280;49042;47.318;19.874;2024-02-15T05:07:27;101228.59;;;5.01;100.00
62942;BME280;49042;47.318;19.874;2024-02-15T05:10:29;101231.41;;;4.78;100.00
62942;BME280;49042;47.318;19.874;2024-02-15T05:13:30;101233.19;;;4.79;100.00
62942;BME280;49042;47.318;19.874;2024-02-15T05:16:35;101237.75;;;4.70;100.00
62942;BME280;49042;47.318;19.874;2024-02-15T05:19:44;101238.13;;;4.63;100.00
62942;BME280;49042;47.318;19.874;2024-02-15T05:22:46;101242.69;;;4.67;100.00
62942;BME280;49042;47.318;19.874;2024-02-15T05:25:51;101246.28;;;4.69;100.00
62942;BME280;49042;47.318;19.874;2024-02-15T05:28:55;101241.56;;;4.89;100.00
62942;BME280;49042;47.318;19.874;2024-02-15T05:31:57;101258.34;;;4.56;100.00
62942;BME280;49042;47.318;19.874;2024-02-15T05:35:01;101258.56;;;4.85;100.00
62942;BME280;49042;47.318;19.874;2024-02-15T05:38:03;101259.34;;;4.84;100.00
62942;BME280;49042;47.318;19.874;2024-02-15T05:41:07;101258.38;;;4.96;100.00
62942;BME280;49042;47.318;19.874;2024-02-15T05:44:10;101258.94;;;4.78;100.00
62942;BME280;49042;47.318;19.874;2024-02-15T05:47:11;101260.06;;;4.95;100.00
62942;BME280;49042;47.318;19.874;2024-02-15T05:50:13;101261.16;;;4.85;100.00
62942;BME280;49042;47.318;19.874;2024-02-15T05:53:16;101253.72;;;4.90;100.00
62942;BME280;49042;47.318;19.874;2024-02-15T05:56:19;101261.22;;;4.73;100.00
62942;BME280;49042;47.318;19.874;2024-02-15T05:59:21;101257.94;;;4.76;100.00
62942;BME280;49042;47.318;19.874;2024-02-15T06:02:22;101269.56;;;4.69;100.00
62942;BME280;49042;47.318;19.874;2024-02-15T06:05:24;101282.16;;;4.64;100.00
62942;BME280;49042;47.318;19.874;2024-02-15T06:08:26;101287.69;;;4.57;100.00
62942;BME280;49042;47.318;19.874;2024-02-15T06:11:28;101299.59;;;4.55;100.00
62942;BME280;49042;47.318;19.874;2024-02-15T06:14:31;101292.84;;;4.19;100.00
62942;BME280;49042;47.318;19.874;2024-02-15T06:17:33;101301.31;;;4.42;100.00
62942;BME280;49042;47.318;19.874;2024-02-15T06:20:35;101301.50;;;4.83;100.00
62942;BME280;49042;47.318;19.874;2024-02-15T06:23:37;101299.53;;;5.18;100.00
62942;BME280;49042;47.318;19.874;2024-02-15T06:26:39;101291.41;;;5.66;100.00
62942;BME280;49042;47.318;19.874;2024-02-15T06:29:41;101291.13;;;5.89;100.00
62942;BME280;49042;47.318;19.874;2024-02-15T06:33:01;101292.62;;;5.85;100.00
62942;BME280;49042;47.318;19.874;2024-02-15T06:36:21;101293.88;;;6.06;100.00
62942;BME280;49042;47.318;19.874;2024-02-15T06:39:41;101295.25;;;6.41;100.00
62942;BME280;49042;47.318;19.874;2024-02-15T06:42:44;101278.75;;;7.14;100.00
62942;BME280;49042;47.318;19.874;2024-02-15T06:45:46;101283.94;;;7.29;100.00
62942;BME280;49042;47.318;19.874;2024-02-15T06:48:48;101284.66;;;6.96;100.00
62942;BME280;49042;47.318;19.874;2024-02-15T06:51:50;101297.28;;;7.20;100.00
62942;BME280;49042;47.318;19.874;2024-02-15T06:54:52;101299.97;;;7.06;100.00
62942;BME280;49042;47.318;19.874;2024-02-15T06:57:55;101313.12;;;7.10;100.00
62942;BME280;49042;47.318;19.874;2024-02-15T07:00:56;101311.28;;;6.78;100.00
62942;BME280;49042;47.318;19.874;2024-02-15T07:03:58;101312.72;;;6.17;100.00
62942;BME280;49042;47.318;19.874;2024-02-15T07:07:00;101313.16;;;6.52;100.00
62942;BME280;49042;47.318;19.874;2024-02-15T07:10:04;101312.19;;;6.94;100.00
62942;BME280;49042;47.318;19.874;2024-02-15T07:13:07;101308.84;;;7.10;100.00
62942;BME280;49042;47.318;19.874;2024-02-15T07:16:08;101309.00;;;7.13;100.00
62942;BME280;49042;47.318;19.874;2024-02-15T07:19:10;101311.75;;;7.32;100.00
62942;BME280;49042;47.318;19.874;2024-02-15T07:22:12;101310.91;;;7.31;100.00
62942;BME280;49042;47.318;19.874;2024-02-15T07:25:14;101309.44;;;7.21;100.00
62942;BME280;49042;47.318;19.874;2024-02-15T07:28:16;101310.44;;;7.23;100.00
62942;BME280;49042;47.318;19.874;2024-02-15T07:31:18;101302.91;;;7.58;100.00
62942;BME280;49042;47.318;19.874;2024-02-15T07:34:19;101304.44;;;7.55;100.00
62942;BME280;49042;47.318;19.874;2024-02-15T07:37:21;101310.44;;;7.54;100.00
62942;BME280;49042;47.318;19.874;2024-02-15T07:40:27;101315.59;;;7.84;100.00
62942;BME280;49042;47.318;19.874;2024-02-15T07:43:30;101312.50;;;8.07;100.00
62942;BME280;49042;47.318;19.874;2024-02-15T07:46:32;101310.31;;;8.14;100.00
62942;BME280;49042;47.318;19.874;2024-02-15T07:49:36;101307.09;;;7.87;100.00
62942;BME280;49042;47.318;19.874;2024-02-15T07:52:38;101302.34;;;7.79;100.00
62942;BME280;49042;47.318;19.874;2024-02-15T07:55:40;101299.25;;;7.70;100.00
62942;BME280;49042;47.318;19.874;2024-02-15T07:58:45;101305.69;;;8.09;100.00
62942;BME280;49042;47.318;19.874;2024-02-15T08:01:53;101307.94;;;8.02;100.00
62942;BME280;49042;47.318;19.874;2024-02-15T08:04:55;101316.84;;;7.91;100.00
62942;BME280;49042;47.318;19.874;2024-02-15T08:07:57;101316.31;;;8.13;100.00
62942;BME280;49042;47.318;19.874;2024-02-15T08:11:01;101321.56;;;7.98;100.00
62942;BME280;49042;47.318;19.874;2024-02-15T08:14:03;101320.56;;;8.11;100.00
62942;BME280;49042;47.318;19.874;2024-02-15T08:17:05;101320.81;;;7.69;100.00
62942;BME280;49042;47.318;19.874;2024-02-15T08:20:10;101329.50;;;7.69;100.00
62942;BME280;49042;47.318;19.874;2024-02-15T08:23:12;101324.09;;;7.81;100.00
62942;BME280;49042;47.318;19.874;2024-02-15T08:26:14;101333.34;;;7.46;100.00
62942;BME280;49042;47.318;19.874;2024-02-15T08:29:18;101329.56;;;7.71;100.00
62942;BME280;49042;47.318;19.874;2024-02-15T08:32:19;101328.44;;;7.66;100.00
62942;BME280;49042;47.318;19.874;2024-02-15T08:35:21;101328.66;;;7.70;100.00
62942;BME280;49042;47.318;19.874;2024-02-15T08:38:23;101339.69;;;7.36;100.00
62942;BME280;49042;47.318;19.874;2024-02-15T08:41:25;101348.66;;;7.26;100.00
62942;BME280;49042;47.318;19.874;2024-02-15T08:44:28;101347.28;;;7.02;100.00
62942;BME280;49042;47.318;19.874;2024-02-15T08:47:30;101344.09;;;6.93;100.00
62942;BME280;49042;47.318;19.874;2024-02-15T08:50:31;101347.03;;;7.28;100.00
62942;BME280;49042;47.318;19.874;2024-02-15T08:53:33;101344.25;;;7.10;100.00
62942;BME280;49042;47.318;19.874;2024-02-15T08:56:35;101333.03;;;6.95;100.00
62942;BME280;49042;47.318;19.874;2024-02-15T08:59:39;101335.88;;;6.85;100.00
62942;BME280;49042;47.318;19.874;2024-02-15T09:02:41;101346.19;;;6.99;100.00
62942;BME280;49042;47.318;19.874;2024-02-15T09:05:42;101345.75;;;7.21;100.00
62942;BME280;49042;47.318;19.874;2024-02-15T09:08:46;101349.88;;;7.17;100.00
62942;BME280;49042;47.318;19.874;2024-02-15T09:11:48;101352.53;;;7.04;100.00
62942;BME280;49042;47.318;19.874;2024-02-15T09:14:49;101352.53;;;7.04;100.00
62942;BME280;49042;47.318;19.874;2024-02-15T09:17:51;101351.03;;;7.07;100.00
62942;BME280;49042;47.318;19.874;2024-02-15T09:20:56;101359.66;;;7.37;100.00
62942;BME280;49042;47.318;19.874;2024-02-15T09:23:58;101371.12;;;7.41;100.00
62942;BME280;49042;47.318;19.874;2024-02-15T09:27:01;101367.09;;;7.31;100.00
62942;BME280;49042;47.318;19.874;2024-02-15T09:30:04;101342.03;;;7.77;100.00
62942;BME280;49042;47.318;19.874;2024-02-15T09:33:09;101349.09;;;7.79;100.00
62942;BME280;49042;47.318;19.874;2024-02-15T09:36:11;101362.34;;;7.54;100.00
62942;BME280;49042;47.318;19.874;2024-02-15T09:39:14;101353.78;;;7.55;100.00
62942;BME280;49042;47.318;19.874;2024-02-15T09:42:15;101354.19;;;7.78;100.00
62942;BME280;49042;47.318;19.874;2024-02-15T09:45:17;101364.69;;;7.64;100.00
62942;BME280;49042;47.318;19.874;2024-02-15T09:48:23;101360.50;;;7.66;100.00
62942;BME280;49042;47.318;19.874;2024-02-15T09:51:27;101349.16;;;7.96;100.00
62942;BME280;49042;47.318;19.874;2024-02-15T09:54:31;101356.22;;;8.31;100.00
62942;BME280;49042;47.318;19.874;2024-02-15T09:57:34;101355.69;;;8.37;100.00
62942;BME280;49042;47.318;19.874;2024-02-15T10:00:44;101349.88;;;8.57;100.00
62942;BME280;49042;47.318;19.874;2024-02-15T10:03:49;101341.47;;;8.62;100.00
62942;BME280;49042;47.318;19.874;2024-02-15T10:06:54;101332.75;;;9.12;100.00
62942;BME280;49042;47.318;19.874;2024-02-15T10:09:56;101341.28;;;8.59;100.00
62942;BME280;49042;47.318;19.874;2024-02-15T10:13:02;101332.28;;;8.85;100.00
62942;BME280;49042;47.318;19.874;2024-02-15T10:16:17;101329.75;;;8.87;100.00
62942;BME280;49042;47.318;19.874;2024-02-15T10:19:20;101332.13;;;8.82;100.00
62942;BME280;49042;47.318;19.874;2024-02-15T10:22:36;101319.47;;;9.24;100.00
62942;BME280;49042;47.318;19.874;2024-02-15T10:25:39;101316.50;;;9.34;100.00
62942;BME280;49042;47.318;19.874;2024-02-15T10:28:42;101320.97;;;9.37;100.00
62942;BME280;49042;47.318;19.874;2024-02-15T10:31:54;101324.28;;;9.69;100.00
62942;BME280;49042;47.318;19.874;2024-02-15T10:34:56;101325.84;;;10.02;100.00
62942;BME280;49042;47.318;19.874;2024-02-15T10:38:06;101323.56;;;9.37;100.00
62942;BME280;49042;47.318;19.874;2024-02-15T10:41:11;101321.97;;;9.94;100.00
62942;BME280;49042;47.318;19.874;2024-02-15T10:44:24;101321.78;;;9.71;100.00
62942;BME280;49042;47.318;19.874;2024-02-15T10:47:27;101321.03;;;9.92;100.00
62942;BME280;49042;47.318;19.874;2024-02-15T10:50:29;101325.03;;;9.67;100.00
62942;BME280;49042;47.318;19.874;2024-02-15T10:53:31;101313.38;;;10.15;100.00
62942;BME280;49042;47.318;19.874;2024-02-15T10:56:42;101313.25;;;10.12;100.00
62942;BME280;49042;47.318;19.874;2024-02-15T11:00:09;101315.34;;;9.82;100.00
62942;BME280;49042;47.318;19.874;2024-02-15T11:03:26;101309.50;;;10.25;100.00
62942;BME280;49042;47.318;19.874;2024-02-15T11:06:35;101302.69;;;10.28;100.00
62942;BME280;49042;47.318;19.874;2024-02-15T11:09:40;101306.59;;;10.57;100.00
62942;BME280;49042;47.318;19.874;2024-02-15T11:12:43;101302.78;;;10.68;100.00
62942;BME280;49042;47.318;19.874;2024-02-15T11:15:50;101297.84;;;10.55;100.00
62942;BME280;49042;47.318;19.874;2024-02-15T11:18:54;101295.81;;;10.49;100.00
62942;BME280;49042;47.318;19.874;2024-02-15T11:21:58;101288.97;;;10.91;100.00
62942;BME280;49042;47.318;19.874;2024-02-15T11:24:59;101284.09;;;10.79;100.00
62942;BME280;49042;47.318;19.874;2024-02-15T11:31:53;101275.34;;;11.63;100.00
62942;BME280;49042;47.318;19.874;2024-02-15T11:35:05;101281.19;;;11.34;100.00
62942;BME280;49042;47.318;19.874;2024-02-15T11:38:27;101277.59;;;11.32;100.00
62942;BME280;49042;47.318;19.874;2024-02-15T11:41:29;101271.44;;;11.30;100.00
62942;BME280;49042;47.318;19.874;2024-02-15T11:44:31;101271.59;;;11.56;100.00
62942;BME280;49042;47.318;19.874;2024-02-15T11:47:37;101263.91;;;11.38;100.00
62942;BME280;49042;47.318;19.874;2024-02-15T11:50:40;101257.47;;;11.74;100.00
62942;BME280;49042;47.318;19.874;2024-02-15T11:53:43;101262.06;;;11.80;100.00
62942;BME280;49042;47.318;19.874;2024-02-15T11:56:51;101261.88;;;11.52;100.00
62942;BME280;49042;47.318;19.874;2024-02-15T11:59:56;101256.19;;;11.62;100.00
62942;BME280;49042;47.318;19.874;2024-02-15T12:03:18;101262.69;;;11.74;100.00
62942;BME280;49042;47.318;19.874;2024-02-15T12:06:41;101246.84;;;12.38;100.00
62942;BME280;49042;47.318;19.874;2024-02-15T12:10:01;101248.94;;;12.73;98.11
62942;BME280;49042;47.318;19.874;2024-02-15T12:13:22;101244.66;;;13.02;93.93
62942;BME280;49042;47.318;19.874;2024-02-15T12:16:42;101245.38;;;12.98;93.74
62942;BME280;49042;47.318;19.874;2024-02-15T12:20:03;101241.66;;;12.65;96.01
62942;BME280;49042;47.318;19.874;2024-02-15T12:23:12;101240.00;;;13.47;88.86
62942;BME280;49042;47.318;19.874;2024-02-15T12:26:21;101243.56;;;13.77;81.16
62942;BME280;49042;47.318;19.874;2024-02-15T12:29:25;101234.72;;;14.33;79.39
62942;BME280;49042;47.318;19.874;2024-02-15T12:32:27;101234.34;;;14.21;81.76
62942;BME280;49042;47.318;19.874;2024-02-15T12:35:29;101227.03;;;14.74;71.41
62942;BME280;49042;47.318;19.874;2024-02-15T12:38:31;101228.69;;;14.70;72.36
62942;BME280;49042;47.318;19.874;2024-02-15T12:41:33;101228.84;;;15.46;63.33
62942;BME280;49042;47.318;19.874;2024-02-15T12:44:35;101226.34;;;14.47;67.26
62942;BME280;49042;47.318;19.874;2024-02-15T12:47:37;101224.97;;;13.98;67.79
62942;BME280;49042;47.318;19.874;2024-02-15T12:50:39;101225.22;;;14.06;66.57
62942;BME280;49042;47.318;19.874;2024-02-15T12:53:42;101218.59;;;14.86;65.18
62942;BME280;49042;47.318;19.874;2024-02-15T12:56:44;101221.91;;;15.50;61.29
62942;BME280;49042;47.318;19.874;2024-02-15T12:59:45;101217.66;;;15.18;60.11
62942;BME280;49042;47.318;19.874;2024-02-15T13:02:48;101226.69;;;15.29;60.59
62942;BME280;49042;47.318;19.874;2024-02-15T13:05:51;101223.81;;;15.20;61.50
62942;BME280;49042;47.318;19.874;2024-02-15T13:08:53;101225.44;;;15.50;57.01
62942;BME280;49042;47.318;19.874;2024-02-15T13:11:55;101222.81;;;15.52;54.52
62942;BME280;49042;47.318;19.874;2024-02-15T13:14:56;101218.44;;;14.80;55.21
62942;BME280;49042;47.318;19.874;2024-02-15T13:17:59;101222.41;;;15.33;54.70
62942;BME280;49042;47.318;19.874;2024-02-15T13:21:01;101219.06;;;15.03;54.75
62942;BME280;49042;47.318;19.874;2024-02-15T13:24:04;101220.47;;;13.94;59.59
62942;BME280;49042;47.318;19.874;2024-02-15T13:27:06;101213.97;;;14.43;60.24
62942;BME280;49042;47.318;19.874;2024-02-15T13:30:09;101211.16;;;14.69;56.88
62942;BME280;49042;47.318;19.874;2024-02-15T13:33:11;101214.62;;;15.01;56.33
62942;BME280;49042;47.318;19.874;2024-02-15T13:36:14;101214.91;;;14.45;57.75
62942;BME280;49042;47.318;19.874;2024-02-15T13:39:17;101207.50;;;14.30;60.76
62942;BME280;49042;47.318;19.874;2024-02-15T13:42:23;101200.16;;;14.84;58.32
62942;BME280;49042;47.318;19.874;2024-02-15T13:45:34;101190.16;;;14.69;57.29
62942;BME280;49042;47.318;19.874;2024-02-15T13:48:40;101199.69;;;14.65;57.92
62942;BME280;49042;47.318;19.874;2024-02-15T13:51:42;101196.56;;;15.54;55.19
62942;BME280;49042;47.318;19.874;2024-02-15T13:54:44;101188.44;;;15.43;54.50
62942;BME280;49042;47.318;19.874;2024-02-15T13:57:47;101194.56;;;15.82;51.94
62942;BME280;49042;47.318;19.874;2024-02-15T14:00:49;101191.31;;;15.95;51.75
62942;BME280;49042;47.318;19.874;2024-02-15T14:03:51;101188.28;;;15.75;52.64
62942;BME280;49042;47.318;19.874;2024-02-15T14:06:53;101185.25;;;16.43;48.75
62942;BME280;49042;47.318;19.874;2024-02-15T14:09:55;101185.81;;;16.25;48.93
62942;BME280;49042;47.318;19.874;2024-02-15T14:13:04;101185.09;;;16.34;49.21
62942;BME280;49042;47.318;19.874;2024-02-15T14:16:13;101175.84;;;16.10;50.14
62942;BME280;49042;47.318;19.874;2024-02-15T14:19:15;101188.56;;;15.49;51.80
62942;BME280;49042;47.318;19.874;2024-02-15T14:22:17;101188.22;;;15.73;54.46
62942;BME280;49042;47.318;19.874;2024-02-15T14:25:19;101182.13;;;15.76;83.88
62942;BME280;49042;47.318;19.874;2024-02-15T14:28:21;101183.06;;;16.20;58.01
62942;BME280;49042;47.318;19.874;2024-02-15T14:31:22;101186.25;;;15.61;56.70
62942;BME280;49042;47.318;19.874;2024-02-15T14:34:43;101177.09;;;15.45;60.56
62942;BME280;49042;47.318;19.874;2024-02-15T14:37:44;101176.16;;;14.69;68.69
62942;BME280;49042;47.318;19.874;2024-02-15T14:40:48;101184.72;;;14.61;66.31
62942;BME280;49042;47.318;19.874;2024-02-15T14:43:58;101177.88;;;14.34;66.64
62942;BME280;49042;47.318;19.874;2024-02-15T14:47:01;101174.34;;;14.33;74.00
62942;BME280;49042;47.318;19.874;2024-02-15T14:50:06;101169.66;;;14.21;74.36
62942;BME280;49042;47.318;19.874;2024-02-15T14:53:10;101167.47;;;14.37;70.39
62942;BME280;49042;47.318;19.874;2024-02-15T14:56:11;101175.03;;;14.26;71.04
62942;BME280;49042;47.318;19.874;2024-02-15T14:59:13;101180.31;;;14.28;68.93
62942;BME280;49042;47.318;19.874;2024-02-15T15:02:16;101172.75;;;13.47;75.00
62942;BME280;49042;47.318;19.874;2024-02-15T15:05:18;101176.00;;;13.38;77.46
62942;BME280;49042;47.318;19.874;2024-02-15T15:08:39;101175.66;;;12.73;86.46
62942;BME280;49042;47.318;19.874;2024-02-15T15:11:59;101175.06;;;12.56;89.64
62942;BME280;49042;47.318;19.874;2024-02-15T15:15:20;101169.25;;;12.39;92.01
62942;BME280;49042;47.318;19.874;2024-02-15T15:18:22;101173.84;;;12.72;88.72
62942;BME280;49042;47.318;19.874;2024-02-15T15:21:23;101180.94;;;12.49;91.69
62942;BME280;49042;47.318;19.874;2024-02-15T15:24:27;101176.47;;;11.97;96.29
62942;BME280;49042;47.318;19.874;2024-02-15T15:27:29;101181.47;;;11.91;100.00
62942;BME280;49042;47.318;19.874;2024-02-15T15:30:30;101176.84;;;11.83;99.44
62942;BME280;49042;47.318;19.874;2024-02-15T15:33:33;101179.75;;;11.68;100.00
62942;BME280;49042;47.318;19.874;2024-02-15T15:36:35;101174.44;;;11.43;100.00
62942;BME280;49042;47.318;19.874;2024-02-15T15:39:36;101169.34;;;11.46;100.00
62942;BME280;49042;47.318;19.874;2024-02-15T15:42:41;101169.88;;;11.38;100.00
62942;BME280;49042;47.318;19.874;2024-02-15T15:45:42;101177.09;;;11.22;100.00
62942;BME280;49042;47.318;19.874;2024-02-15T15:48:46;101178.50;;;11.13;100.00
62942;BME280;49042;47.318;19.874;2024-02-15T15:51:48;101179.81;;;11.02;100.00